createdAt,value
2022-08-26T00:01:31.688Z,5.10
2022-08-26T00:03:58.783Z,5.13
2022-08-26T00:06:25.918Z,4.80
2022-08-26T00:08:52.393Z,4.80
2022-08-26T00:11:26.412Z,4.90
2022-08-26T00:13:54.798Z,5.25
2022-08-26T00:16:22.173Z,5.00
2022-08-26T00:18:48.632Z,5.07
2022-08-26T00:21:16.049Z,4.95
2022-08-26T00:23:42.879Z,5.35
2022-08-26T00:26:09.377Z,5.32
2022-08-26T00:28:37.962Z,5.18
2022-08-26T00:31:07.111Z,5.20
2022-08-26T00:33:34.022Z,5.10
2022-08-26T00:36:01.596Z,5.57
2022-08-26T00:38:28.964Z,4.88
2022-08-26T00:40:57.289Z,5.18
2022-08-26T00:43:25.615Z,5.50
2022-08-26T00:46:01.125Z,4.72
2022-08-26T00:48:32.403Z,5.00
2022-08-26T00:51:25.170Z,5.18
2022-08-26T00:54:03.965Z,4.93
2022-08-26T00:56:38.081Z,5.53
2022-08-26T00:59:10.781Z,5.22
2022-08-26T01:01:39.751Z,5.22
2022-08-26T01:04:06.299Z,4.65
2022-08-26T01:06:32.691Z,5.32
2022-08-26T01:09:00.102Z,5.05
2022-08-26T01:11:27.544Z,5.40
2022-08-26T01:13:59.119Z,5.00
2022-08-26T01:16:25.683Z,5.13
2022-08-26T01:18:58.332Z,5.18
2022-08-26T01:21:42.144Z,5.28
2022-08-26T01:24:10.335Z,5.05
2022-08-26T01:26:41.909Z,5.35
2022-08-26T01:29:14.782Z,5.07
2022-08-26T01:31:52.491Z,5.22
2022-08-26T01:34:23.324Z,5.57
2022-08-26T01:36:56.970Z,5.10
2022-08-26T01:39:23.551Z,5.28
2022-08-26T01:41:53.808Z,4.90
2022-08-26T01:44:25.476Z,4.78
2022-08-26T01:46:54.325Z,5.13
2022-08-26T01:49:23.206Z,5.47
2022-08-26T01:51:55.034Z,5.40
2022-08-26T01:54:22.943Z,4.97
2022-08-26T01:56:51.439Z,4.53
2022-08-26T01:59:20.343Z,4.57
2022-08-26T02:01:48.591Z,5.43
2022-08-26T02:04:56.487Z,5.10
2022-08-26T02:07:24.207Z,4.72
2022-08-26T02:09:53.631Z,6.18
2022-08-26T02:12:20.541Z,5.35
2022-08-26T02:14:54.122Z,5.05
2022-08-26T02:17:26.187Z,5.28
2022-08-26T02:19:53.453Z,5.10
2022-08-26T02:22:22.726Z,5.45
2022-08-26T02:25:00.352Z,5.07
2022-08-26T02:27:33.588Z,4.60
2022-08-26T02:30:11.584Z,5.05
2022-08-26T02:32:38.479Z,4.72
2022-08-26T02:35:08.217Z,5.05
2022-08-26T02:37:35.164Z,5.32
2022-08-26T02:40:02.752Z,5.63
2022-08-26T02:42:29.684Z,5.50
2022-08-26T02:44:56.189Z,4.72
2022-08-26T02:47:24.767Z,5.75
2022-08-26T02:49:51.741Z,5.63
2022-08-26T02:52:19.168Z,4.80
2022-08-26T02:54:45.793Z,5.05
2022-08-26T02:57:16.471Z,5.20
2022-08-26T02:59:43.793Z,5.32
2022-08-26T03:02:11.201Z,5.07
2022-08-26T03:04:39.121Z,5.28
2022-08-26T03:07:06.372Z,5.50
2022-08-26T03:09:33.044Z,5.80
2022-08-26T03:12:00.058Z,5.80
2022-08-26T03:14:26.851Z,5.20
2022-08-26T03:16:54.366Z,5.80
2022-08-26T03:19:23.265Z,4.97
2022-08-26T03:21:49.920Z,5.20
2022-08-26T03:24:19.176Z,5.50
2022-08-26T03:26:52.172Z,5.97
2022-08-26T03:29:39.227Z,4.82
2022-08-26T03:32:06.259Z,5.00
2022-08-26T03:34:33.104Z,5.55
2022-08-26T03:36:59.786Z,5.68
2022-08-26T03:39:28.193Z,5.43
2022-08-26T03:41:58.772Z,5.28
2022-08-26T03:44:25.259Z,5.68
2022-08-26T03:46:51.806Z,5.90
2022-08-26T03:49:18.371Z,6.25
2022-08-26T03:51:44.981Z,5.65
2022-08-26T03:54:12.142Z,5.80
2022-08-26T03:56:38.776Z,5.90
2022-08-26T03:59:07.491Z,5.57
2022-08-26T04:01:34.574Z,5.78
2022-08-26T04:04:01.461Z,5.55
2022-08-26T04:06:42.445Z,5.43
2022-08-26T04:09:19.822Z,6.13
2022-08-26T04:11:50.581Z,6.32
2022-08-26T04:14:20.539Z,5.32
2022-08-26T04:16:47.928Z,5.57
2022-08-26T04:19:15.410Z,6.32
2022-08-26T04:21:43.348Z,5.97
2022-08-26T04:24:12.754Z,6.00
2022-08-26T04:26:43.664Z,6.57
2022-08-26T04:29:18.036Z,5.72
2022-08-26T04:31:45.976Z,5.57
2022-08-26T04:34:14.262Z,5.78
2022-08-26T04:36:43.013Z,6.13
2022-08-26T04:39:18.744Z,5.75
2022-08-26T04:41:48.388Z,5.95
2022-08-26T04:44:15.965Z,6.00
2022-08-26T04:46:44.186Z,6.25
2022-08-26T04:49:11.401Z,6.50
2022-08-26T04:51:38.457Z,6.80
2022-08-26T04:54:07.051Z,5.72
2022-08-26T04:56:39.413Z,6.68
2022-08-26T04:59:16.867Z,6.15
2022-08-26T05:01:50.199Z,6.05
2022-08-26T05:04:18.891Z,6.55
2022-08-26T05:06:46.230Z,7.22
2022-08-26T05:09:14.330Z,6.70
2022-08-26T05:11:42.411Z,6.15
2022-08-26T05:14:09.609Z,6.90
2022-08-26T05:16:36.186Z,7.53
2022-08-26T05:19:03.441Z,7.30
2022-08-26T05:21:30.024Z,7.45
2022-08-26T05:23:56.627Z,7.07
2022-08-26T05:26:29.474Z,7.20
2022-08-26T05:28:56.607Z,6.68
2022-08-26T05:31:27.079Z,7.18
2022-08-26T05:33:54.340Z,6.18
2022-08-26T05:36:23.202Z,6.35
2022-08-26T05:38:57.774Z,7.28
2022-08-26T05:41:36.645Z,6.32
2022-08-26T05:44:08.730Z,7.72
2022-08-26T05:46:36.569Z,6.45
2022-08-26T05:49:05.188Z,6.75
2022-08-26T05:51:32.587Z,7.25
2022-08-26T05:54:02.105Z,7.82
2022-08-26T05:56:30.408Z,6.78
2022-08-26T05:58:58.417Z,7.30
2022-08-26T06:01:28.305Z,6.78
2022-08-26T06:04:02.452Z,7.90
2022-08-26T06:06:34.517Z,7.03
2022-08-26T06:09:04.393Z,7.35
2022-08-26T06:11:32.510Z,7.38
2022-08-26T06:14:04.030Z,7.70
2022-08-26T06:16:32.024Z,7.03
2022-08-26T06:18:58.441Z,7.95
2022-08-26T06:21:34.928Z,8.02
2022-08-26T06:24:27.147Z,6.63
2022-08-26T06:27:01.225Z,8.07
2022-08-26T06:29:29.320Z,7.22
2022-08-26T06:31:56.803Z,7.55
2022-08-26T06:34:29.801Z,6.65
2022-08-26T06:36:58.560Z,7.20
2022-08-26T06:39:25.199Z,7.53
2022-08-26T06:41:51.986Z,7.03
2022-08-26T06:44:18.772Z,7.35
2022-08-26T06:46:45.855Z,7.53
2022-08-26T06:49:17.312Z,7.22
2022-08-26T06:51:43.945Z,9.00
2022-08-26T06:54:10.496Z,7.78
2022-08-26T06:56:42.976Z,8.00
2022-08-26T06:59:11.304Z,7.18
2022-08-26T07:01:44.434Z,7.10
2022-08-26T07:04:14.431Z,8.13
2022-08-26T07:06:49.264Z,8.50
2022-08-26T07:09:17.364Z,9.18
2022-08-26T07:11:44.771Z,8.50
2022-08-26T07:14:12.148Z,8.05
2022-08-26T07:16:39.690Z,7.32
2022-08-26T07:19:11.253Z,8.65
2022-08-26T07:21:41.419Z,8.88
2022-08-26T07:24:09.051Z,7.72
2022-08-26T07:26:38.783Z,8.90
2022-08-26T07:29:11.412Z,9.27
2022-08-26T07:31:39.504Z,9.60
2022-08-26T07:34:10.777Z,8.70
2022-08-26T07:36:37.679Z,8.70
2022-08-26T07:39:05.516Z,8.52
2022-08-26T07:41:32.370Z,8.80
2022-08-26T07:43:59.257Z,8.68
2022-08-26T07:46:30.338Z,9.00
2022-08-26T07:48:58.120Z,8.43
2022-08-26T07:51:26.250Z,7.60
2022-08-26T07:53:54.603Z,8.25
2022-08-26T07:56:23.038Z,6.55
2022-08-26T07:58:51.832Z,6.72
2022-08-26T08:01:24.172Z,9.45
2022-08-26T08:03:51.937Z,7.88
2022-08-26T08:06:27.259Z,7.78
2022-08-26T08:08:55.543Z,7.45
2022-08-26T08:11:23.074Z,7.40
2022-08-26T08:13:55.983Z,7.25
2022-08-26T08:16:32.233Z,7.93
2022-08-26T08:19:00.182Z,7.85
2022-08-26T08:21:27.561Z,7.95
2022-08-26T08:23:57.182Z,7.70
2022-08-26T08:26:26.331Z,7.65
2022-08-26T08:28:57.522Z,7.35
2022-08-26T08:31:55.760Z,7.70
2022-08-26T08:34:15.184Z,7.72
2022-08-26T08:36:41.770Z,8.32
2022-08-26T08:39:09.275Z,8.57
2022-08-26T08:42:10.805Z,9.00
2022-08-26T08:44:41.731Z,8.20
2022-08-26T08:47:27.325Z,8.60
2022-08-26T08:50:01.125Z,8.52
2022-08-26T08:52:32.462Z,8.00
2022-08-26T08:54:59.064Z,7.68
2022-08-26T08:58:04.687Z,7.68
2022-08-26T09:00:46.417Z,7.90
2022-08-26T09:03:41.986Z,8.70
2022-08-26T09:06:16.941Z,6.60
2022-08-26T09:08:46.173Z,7.47
2022-08-26T09:11:17.800Z,8.10
2022-08-26T09:13:54.357Z,8.90
2022-08-26T09:16:37.233Z,7.57
2022-08-26T09:19:19.256Z,7.80
2022-08-26T09:21:54.347Z,8.80
2022-08-26T09:24:23.907Z,8.07
2022-08-26T09:26:57.743Z,7.00
2022-08-26T09:29:32.097Z,7.50
2022-08-26T09:32:35.088Z,7.40
2022-08-26T09:35:08.783Z,6.95
2022-08-26T09:40:27.038Z,7.25
2022-08-26T09:43:22.858Z,7.72
2022-08-26T09:46:08.909Z,7.63
2022-08-26T09:48:39.347Z,6.88
2022-08-26T09:51:31.958Z,7.32
2022-08-26T09:54:00.851Z,7.50
2022-08-26T09:56:39.306Z,7.68
2022-08-26T09:59:11.017Z,6.88
2022-08-26T10:01:42.721Z,6.97
2022-08-26T10:04:13.933Z,7.32
2022-08-26T10:07:02.307Z,7.60
2022-08-26T10:09:35.334Z,8.15
2022-08-26T10:12:17.335Z,7.43
2022-08-26T10:14:51.897Z,7.13
2022-08-26T10:17:26.540Z,7.22
2022-08-26T10:19:59.268Z,6.72
2022-08-26T10:22:44.373Z,7.72
2022-08-26T10:25:15.916Z,8.05
2022-08-26T10:27:58.253Z,6.82
2022-08-26T10:30:31.700Z,6.55
2022-08-26T10:33:04.642Z,7.63
2022-08-26T10:35:33.492Z,7.32
2022-08-26T10:38:11.167Z,6.93
2022-08-26T10:40:50.949Z,7.38
2022-08-26T10:43:25.667Z,7.65
2022-08-26T10:45:57.037Z,7.28
2022-08-26T10:48:36.026Z,7.45
2022-08-26T10:51:04.072Z,7.40
2022-08-26T10:54:02.116Z,6.43
2022-08-26T10:56:43.313Z,7.45
2022-08-26T10:59:34.557Z,6.25
2022-08-26T11:02:41.872Z,6.95
2022-08-26T11:05:20.385Z,7.15
2022-08-26T11:07:51.339Z,5.88
2022-08-26T11:10:18.412Z,6.80
2022-08-26T11:12:45.379Z,6.25
2022-08-26T11:15:24.596Z,6.40
2022-08-26T11:17:51.377Z,7.07
2022-08-26T11:20:29.859Z,6.55
2022-08-26T11:23:28.082Z,7.30
2022-08-26T11:26:09.586Z,6.75
2022-08-26T11:28:50.607Z,6.57
2022-08-26T11:31:38.630Z,6.60
2022-08-26T11:34:08.701Z,5.75
2022-08-26T11:36:58.955Z,6.60
2022-08-26T11:39:54.060Z,6.72
2022-08-26T11:42:35.669Z,6.70
2022-08-26T11:45:16.773Z,6.05
2022-08-26T11:47:43.243Z,5.30
2022-08-26T11:50:18.140Z,5.82
2022-08-26T11:53:01.786Z,5.38
2022-08-26T11:55:30.444Z,5.43
2022-08-26T11:58:00.811Z,5.13
2022-08-26T12:00:39.066Z,4.95
2022-08-26T12:03:18.121Z,4.78
2022-08-26T12:05:47.957Z,4.30
2022-08-26T12:08:21.427Z,4.30
2022-08-26T12:10:49.059Z,4.20
2022-08-26T12:13:26.352Z,4.43
2022-08-26T12:15:56.480Z,4.20
2022-08-26T12:18:30.286Z,4.03
2022-08-26T12:21:00.135Z,4.20
2022-08-26T12:23:36.528Z,3.58
2022-08-26T12:26:11.133Z,3.70
2022-08-26T12:28:47.352Z,4.28
2022-08-26T12:31:22.451Z,3.92
2022-08-26T12:33:49.698Z,4.13
2022-08-26T12:36:27.456Z,4.25
2022-08-26T12:38:58.291Z,3.75
2022-08-26T12:41:39.713Z,4.20
2022-08-26T12:44:06.405Z,4.20
2022-08-26T12:46:33.275Z,3.92
2022-08-26T12:49:01.726Z,4.25
2022-08-26T12:51:30.980Z,4.30
2022-08-26T12:53:58.493Z,4.03
2022-08-26T12:56:36.797Z,5.05
2022-08-26T12:59:23.622Z,4.43
2022-08-26T13:01:51.277Z,5.60
2022-08-26T13:04:41.719Z,5.32
2022-08-26T13:07:21.830Z,5.40
2022-08-26T13:09:50.113Z,5.10
2022-08-26T13:12:25.088Z,5.70
2022-08-26T13:14:51.668Z,5.75
2022-08-26T13:17:18.104Z,5.20
2022-08-26T13:19:45.499Z,5.82
2022-08-26T13:22:13.661Z,5.20
2022-08-26T13:24:42.577Z,5.55
2022-08-26T13:27:12.542Z,4.53
2022-08-26T13:29:39.427Z,4.70
2022-08-26T13:32:07.773Z,5.03
2022-08-26T13:34:37.454Z,5.50
2022-08-26T13:37:04.728Z,6.13
2022-08-26T13:39:31.190Z,6.43
2022-08-26T13:41:57.713Z,6.70
2022-08-26T13:44:24.286Z,6.00
2022-08-26T13:46:50.922Z,5.32
2022-08-26T13:49:17.421Z,5.57
2022-08-26T13:51:43.978Z,5.60
2022-08-26T13:54:10.621Z,4.88
2022-08-26T13:56:37.380Z,6.40
2022-08-26T13:59:05.533Z,5.60
2022-08-26T14:01:34.592Z,5.57
2022-08-26T14:04:02.578Z,5.45
2022-08-26T14:06:29.122Z,5.25
2022-08-26T14:08:55.963Z,5.88
2022-08-26T14:11:22.993Z,5.50
2022-08-26T14:13:50.172Z,6.25
2022-08-26T14:16:25.296Z,7.78
2022-08-26T14:18:52.232Z,7.72
2022-08-26T14:21:18.695Z,8.35
2022-08-26T14:23:45.232Z,8.25
2022-08-26T14:26:21.208Z,7.85
2022-08-26T14:28:59.476Z,7.63
2022-08-26T14:31:27.331Z,7.03
2022-08-26T14:33:56.474Z,7.07
2022-08-26T14:36:28.855Z,7.35
2022-08-26T14:38:58.216Z,7.53
2022-08-26T14:41:25.308Z,7.57
2022-08-26T14:44:00.136Z,6.32
2022-08-26T14:46:28.998Z,7.18
2022-08-26T14:49:01.514Z,6.50
2022-08-26T14:51:29.057Z,6.38
2022-08-26T14:54:13.792Z,6.63
2022-08-26T14:56:55.591Z,6.40
2022-08-26T14:59:36.466Z,7.25
2022-08-26T15:02:04.451Z,6.15
2022-08-26T15:04:30.964Z,6.00
2022-08-26T15:06:59.547Z,7.35
2022-08-26T15:09:27.697Z,6.25
2022-08-26T15:11:54.466Z,6.70
2022-08-26T15:14:22.027Z,6.13
2022-08-26T15:16:53.752Z,5.20
2022-08-26T15:19:20.676Z,5.30
2022-08-26T15:21:47.597Z,5.57
2022-08-26T15:24:17.289Z,5.30
2022-08-26T15:26:44.947Z,5.40
2022-08-26T15:29:11.573Z,5.10
2022-08-26T15:31:38.668Z,4.78
2022-08-26T15:34:11.109Z,5.22
2022-08-26T15:36:42.775Z,4.85
2022-08-26T15:39:09.300Z,4.82
2022-08-26T15:41:36.164Z,4.70
2022-08-26T15:44:04.974Z,5.40
2022-08-26T15:46:31.915Z,5.18
2022-08-26T15:48:58.555Z,4.72
2022-08-26T15:51:32.318Z,4.32
2022-08-26T15:53:59.682Z,4.63
2022-08-26T15:56:28.043Z,4.80
2022-08-26T15:58:56.309Z,5.28
2022-08-26T16:01:27.420Z,4.85
2022-08-26T16:03:54.884Z,4.88
2022-08-26T16:06:24.782Z,5.05
2022-08-26T16:08:51.719Z,5.28
2022-08-26T16:11:21.178Z,5.28
2022-08-26T16:13:47.771Z,4.10
2022-08-26T16:16:15.031Z,6.00
2022-08-26T16:18:42.653Z,4.38
2022-08-26T16:21:14.266Z,4.50
2022-08-26T16:23:43.202Z,4.60
2022-08-26T16:26:21.728Z,3.78
2022-08-26T16:28:48.611Z,3.08
2022-08-26T16:31:16.132Z,2.55
2022-08-26T16:33:43.240Z,2.50
2022-08-26T16:36:10.800Z,2.40
2022-08-26T16:38:38.904Z,2.67
2022-08-26T16:41:06.536Z,2.42
2022-08-26T16:43:33.416Z,3.03
2022-08-26T16:46:00.367Z,2.53
2022-08-26T16:48:27.795Z,2.80
2022-08-26T16:50:55.525Z,2.90
2022-08-26T16:53:22.319Z,2.78
2022-08-26T16:55:50.068Z,3.08
2022-08-26T16:58:17.652Z,3.45
2022-08-26T17:00:45.090Z,3.60
2022-08-26T17:03:12.324Z,2.83
2022-08-26T17:05:38.905Z,2.40
2022-08-26T17:08:05.863Z,3.67
2022-08-26T17:10:32.750Z,3.63
2022-08-26T17:12:59.366Z,3.08
2022-08-26T17:15:26.033Z,3.00
2022-08-26T17:17:53.565Z,3.90
2022-08-26T17:20:22.321Z,3.88
2022-08-26T17:22:50.906Z,3.97
2022-08-26T17:25:28.086Z,5.05
2022-08-26T17:30:26.373Z,5.85
2022-08-26T17:32:54.034Z,5.20
2022-08-26T17:35:20.808Z,5.70
2022-08-26T17:37:47.720Z,4.97
2022-08-26T17:40:19.048Z,5.60
2022-08-26T17:42:46.144Z,5.35
2022-08-26T17:45:12.835Z,5.32
2022-08-26T17:47:39.481Z,5.43
2022-08-26T17:50:09.193Z,5.78
2022-08-26T17:52:36.935Z,5.07
2022-08-26T17:55:04.858Z,5.50
2022-08-26T17:57:31.377Z,5.88
2022-08-26T18:00:05.922Z,5.35
2022-08-26T18:02:37.658Z,5.25
2022-08-26T18:05:05.765Z,5.22
2022-08-26T18:07:33.505Z,5.70
2022-08-26T18:10:13.062Z,4.90
2022-08-26T18:12:40.918Z,5.97
2022-08-26T18:15:09.411Z,6.00
2022-08-26T18:17:35.933Z,6.25
2022-08-26T18:20:02.655Z,6.03
2022-08-26T18:22:29.091Z,5.78
2022-08-26T18:24:59.105Z,6.07
2022-08-26T18:27:25.856Z,6.78
2022-08-26T18:29:52.314Z,6.22
2022-08-26T18:32:18.740Z,6.30
2022-08-26T18:34:45.363Z,6.35
2022-08-26T18:39:40.792Z,6.50
2022-08-26T18:42:07.866Z,6.70
2022-08-26T18:44:34.497Z,6.32
2022-08-26T18:47:00.987Z,5.70
2022-08-26T18:49:27.452Z,6.15
2022-08-26T18:51:54.508Z,6.20
2022-08-26T18:56:53.193Z,6.10
2022-08-26T18:59:19.648Z,5.95
2022-08-26T19:01:53.494Z,5.80
2022-08-26T19:04:20.081Z,6.25
2022-08-26T19:06:48.885Z,5.70
2022-08-26T19:09:17.813Z,5.90
2022-08-26T19:11:46.114Z,5.65
2022-08-26T19:14:15.301Z,5.40
2022-08-26T19:16:44.730Z,5.65
2022-08-26T19:19:11.617Z,5.22
2022-08-26T19:21:38.730Z,5.55
2022-08-26T19:24:09.258Z,5.00
2022-08-26T19:26:36.651Z,4.63
2022-08-26T19:29:03.857Z,4.82
2022-08-26T19:31:31.131Z,5.43
2022-08-26T19:33:58.007Z,5.65
2022-08-26T19:36:26.501Z,5.20
2022-08-26T19:38:54.003Z,4.75
2022-08-26T19:41:34.098Z,5.15
2022-08-26T19:44:09.938Z,5.47
2022-08-26T19:46:36.567Z,5.80
2022-08-26T19:49:03.480Z,5.25
2022-08-26T19:51:33.535Z,6.05
2022-08-26T19:54:01.089Z,5.55
2022-08-26T19:56:28.643Z,6.90
2022-08-26T19:58:56.044Z,6.72
2022-08-26T20:01:23.609Z,7.38
2022-08-26T20:03:50.565Z,6.75
2022-08-26T20:06:17.865Z,7.07
2022-08-26T20:08:44.619Z,7.53
2022-08-26T20:11:15.792Z,6.95
2022-08-26T20:13:43.773Z,7.00
2022-08-26T20:16:11.931Z,7.40
2022-08-26T20:18:59.505Z,6.28
2022-08-26T20:21:26.787Z,6.45
2022-08-26T20:23:54.752Z,6.57
2022-08-26T20:26:21.130Z,6.88
2022-08-26T20:28:47.636Z,6.43
2022-08-26T20:31:19.005Z,6.57
2022-08-26T20:33:46.719Z,5.70
2022-08-26T20:36:14.851Z,6.50
2022-08-26T20:38:41.396Z,5.55
2022-08-26T20:41:08.021Z,5.50
2022-08-26T20:43:34.540Z,6.32
2022-08-26T20:46:01.019Z,6.18
2022-08-26T20:48:27.766Z,6.45
2022-08-26T20:51:00.783Z,6.47
2022-08-26T20:53:29.456Z,6.07
2022-08-26T20:56:03.674Z,6.07
2022-08-26T20:58:30.419Z,7.18
2022-08-26T21:00:56.984Z,6.20
2022-08-26T21:03:24.168Z,6.45
2022-08-26T21:05:50.660Z,6.35
2022-08-26T21:08:17.068Z,6.47
2022-08-26T21:10:43.693Z,6.85
2022-08-26T21:13:12.968Z,6.47
2022-08-26T21:15:39.449Z,6.65
2022-08-26T21:18:05.944Z,6.80
2022-08-26T21:20:32.586Z,6.95
2022-08-26T21:22:59.172Z,6.80
2022-08-26T21:25:26.406Z,7.22
2022-08-26T21:27:52.877Z,6.70
2022-08-26T21:30:19.434Z,5.90
2022-08-26T21:32:45.949Z,7.18
2022-08-26T21:35:12.495Z,6.15
2022-08-26T21:37:38.901Z,6.95
2022-08-26T21:40:07.206Z,6.78
2022-08-26T21:42:34.780Z,6.45
2022-08-26T21:45:02.602Z,5.72
2022-08-26T21:47:32.502Z,6.82
2022-08-26T21:49:59.760Z,5.57
2022-08-26T21:52:26.391Z,7.43
2022-08-26T21:54:58.477Z,7.75
2022-08-26T21:57:26.123Z,6.60
2022-08-26T21:59:52.834Z,7.28
2022-08-26T22:02:19.778Z,6.55
2022-08-26T22:04:48.878Z,7.15
2022-08-26T22:07:17.185Z,6.25
2022-08-26T22:09:44.525Z,6.78
2022-08-26T22:12:12.215Z,6.47
2022-08-26T22:14:39.550Z,6.25
2022-08-26T22:17:06.521Z,6.72
2022-08-26T22:19:34.108Z,7.50
2022-08-26T22:22:13.000Z,7.40
2022-08-26T22:24:39.447Z,7.60
2022-08-26T22:27:05.875Z,7.40
2022-08-26T22:29:33.224Z,7.45
2022-08-26T22:31:59.989Z,6.75
2022-08-26T22:34:28.235Z,8.40
2022-08-26T22:36:54.779Z,7.32
2022-08-26T22:39:25.405Z,7.60
2022-08-26T22:41:53.681Z,7.30
2022-08-26T22:44:22.036Z,7.32
2022-08-26T22:46:50.767Z,7.32
2022-08-26T22:49:17.531Z,7.60
2022-08-26T22:51:45.475Z,7.90
2022-08-26T22:54:12.830Z,7.25
2022-08-26T22:56:40.081Z,7.93
2022-08-26T22:59:07.921Z,8.05
2022-08-26T23:01:40.606Z,7.93
2022-08-26T23:04:07.331Z,8.63
2022-08-26T23:06:38.407Z,9.73
2022-08-26T23:09:06.784Z,8.38
2022-08-26T23:11:33.630Z,7.90
2022-08-26T23:14:01.471Z,9.00
2022-08-26T23:16:39.295Z,9.27
2022-08-26T23:19:06.673Z,10.98
2022-08-26T23:21:33.284Z,9.23
2022-08-26T23:24:00.816Z,8.57
2022-08-26T23:26:27.279Z,9.98
2022-08-26T23:28:54.418Z,9.88
2022-08-26T23:31:20.912Z,9.85
2022-08-26T23:34:05.892Z,10.68
2022-08-26T23:36:35.091Z,11.13
2022-08-26T23:39:04.123Z,10.13
2022-08-26T23:41:31.093Z,11.40
2022-08-26T23:44:01.587Z,11.32
2022-08-26T23:46:29.788Z,9.57
2022-08-26T23:48:56.227Z,11.65
2022-08-26T23:51:41.383Z,9.95
2022-08-26T23:54:07.840Z,9.93
2022-08-26T23:56:34.675Z,10.05
2022-08-26T23:59:01.187Z,9.13
